»·PEaware :: UAL241 KSFO-KRNO

UAL241 :: KSFO-KRNO

FLIGHT INFORMATION

Flight Status: Arrived
Operator:
United Airlines
More flights by this operator :: More flights under this callsign
Pilot: Ryan H. (12491)
Aircraft: BOEING 737-800
(B738)
More flights by this aircraft type
Origin: KSFO San Francisco Intl
United States
Destination: KRNO Reno/Tahoe Intl
United States
More flights between these airports :: More routes between these airports
Route: KSFO TRUKN2 ORRCA TARVR SPOON KRNO
File this flight plan on PilotEdge
Remarks:
Altitude:
(Current/Filed)
270ft
Speed:
(Current/Filed)
450kts
Departed: 06-Jun-18 05:25 PM
Arrived: 06-Jun-18 05:55 PM
Distance/Time
Traveled:
166nm/0:30
Distance/Time
To Go:
Arrived

Flight Plot

Page will automatically refresh every two minutes.

Flight plan parsing failed; only flown route is shown


Map Options




Map Legend


Flown Route
Filed Route
Departure Airport
Arrival Airport
Navaid (VOR, NDB)
Fix

Horizontal Profiles

Position Reports

Time Latitude Longitude Heading Altitude Ground
Speed
06-Jun-18 16:58 37.618631 -122.381649 168 22ft 0kts
06-Jun-18 16:59 37.618631 -122.381649 168 22ft 0kts
06-Jun-18 17:00 37.618631 -122.381649 168 22ft 0kts
06-Jun-18 17:01 37.618631 -122.381649 168 22ft 0kts
06-Jun-18 17:02 37.618631 -122.381649 168 22ft 0kts
06-Jun-18 17:03 37.618631 -122.381649 168 22ft 0kts
06-Jun-18 17:04 37.618631 -122.381649 168 22ft 0kts
06-Jun-18 17:05 37.618631 -122.381649 168 22ft 0kts
06-Jun-18 17:06 37.618631 -122.381649 168 22ft 0kts
06-Jun-18 17:07 37.618631 -122.381649 168 22ft 0kts
06-Jun-18 17:08 37.618631 -122.381649 168 22ft 0kts
06-Jun-18 17:09 37.618631 -122.381649 168 22ft 0kts
06-Jun-18 17:10 37.618631 -122.381649 168 22ft 0kts
06-Jun-18 17:11 37.618631 -122.381649 168 22ft 0kts
06-Jun-18 17:12 37.618631 -122.381649 168 22ft 0kts
06-Jun-18 17:13 37.618631 -122.381649 168 22ft 0kts
06-Jun-18 17:14 37.618631 -122.381649 168 22ft 0kts
06-Jun-18 17:15 37.618631 -122.381649 168 22ft 0kts
06-Jun-18 17:16 37.618631 -122.381649 168 22ft 0kts
06-Jun-18 17:17 37.618631 -122.381649 168 22ft 0kts
06-Jun-18 17:18 37.618899 -122.381764 149 22ft 3kts
06-Jun-18 17:19 37.619174 -122.382097 122 22ft 0kts
06-Jun-18 17:20 37.619174 -122.382097 122 22ft 0kts
06-Jun-18 17:21 37.618609 -122.379555 114 22ft 13kts
06-Jun-18 17:22 37.615757 -122.371658 118 22ft 37kts
06-Jun-18 17:23 37.610959 -122.361325 118 22ft 28kts
06-Jun-18 17:24 37.611006 -122.359017 29 22ft 0kts
06-Jun-18 17:25 37.614895 -122.365964 297 23ft 117kts
06-Jun-18 17:26 37.644713 -122.410235 356 3083ft 216kts
06-Jun-18 17:27 37.682180 -122.342708 69 6555ft 277kts
06-Jun-18 17:28 37.708782 -122.246334 70 10429ft 314kts
06-Jun-18 17:29 37.772450 -122.159831 34 13260ft 373kts
06-Jun-18 17:30 37.862958 -122.079032 34 16107ft 412kts
06-Jun-18 17:31 37.958638 -121.991990 34 19040ft 432kts
06-Jun-18 17:32 38.075461 -121.886053 34 21899ft 454kts
06-Jun-18 17:33 38.162620 -121.806974 34 22905ft 465kts
06-Jun-18 17:34 38.268965 -121.710377 34 24792ft 477kts
06-Jun-18 17:35 38.378583 -121.610768 33 26427ft 487kts
06-Jun-18 17:36 38.460472 -121.472204 66 26903ft 498kts
06-Jun-18 17:37 38.497325 -121.303096 75 26899ft 495kts
06-Jun-18 17:38 38.533316 -121.133837 74 26895ft 492kts
06-Jun-18 17:39 38.569219 -120.964343 75 26932ft 494kts
06-Jun-18 17:40 38.604808 -120.795478 75 26704ft 486kts
06-Jun-18 17:41 38.639567 -120.629149 75 24079ft 472kts
06-Jun-18 17:42 38.673713 -120.464765 75 24000ft 477kts
06-Jun-18 17:43 38.707277 -120.302080 76 22437ft 466kts
06-Jun-18 17:44 38.739502 -120.144783 76 19887ft 446kts
06-Jun-18 17:45 38.770166 -119.994255 76 17376ft 428kts
06-Jun-18 17:46 38.832013 -119.869703 35 16089ft 424kts
06-Jun-18 17:47 38.943467 -119.820256 13 16039ft 428kts
06-Jun-18 17:48 39.057527 -119.785659 13 13981ft 414kts
06-Jun-18 17:49 39.166969 -119.766342 0 11716ft 374kts
06-Jun-18 17:50 39.263897 -119.765294 358 9377ft 323kts
06-Jun-18 17:51 39.343929 -119.762671 355 8950ft 254kts
06-Jun-18 17:52 39.408255 -119.768697 354 6778ft 219kts
06-Jun-18 17:53 39.461125 -119.769058 352 5015ft 163kts
06-Jun-18 17:54 39.499618 -119.769271 359 4425ft 93kts
06-Jun-18 17:55 39.504155 -119.770249 306 4424ft 1kts
06-Jun-18 17:56 39.505662 -119.772111 246 4424ft 5kts

Navigation Log

Ident Type
Flight plan parsing failed, navigation log unavailable